createdAt,value
2022-11-06T00:00:32.396Z,7.29
2022-11-06T00:03:01.200Z,7.27
2022-11-06T00:05:48.636Z,7.24
2022-11-06T00:08:26.557Z,7.21
2022-11-06T00:10:54.095Z,7.18
2022-11-06T00:13:21.938Z,7.14
2022-11-06T00:15:50.173Z,7.09
2022-11-06T00:18:18.365Z,7.10
2022-11-06T00:20:46.316Z,7.09
2022-11-06T00:23:14.871Z,7.07
2022-11-06T00:25:43.741Z,7.03
2022-11-06T00:28:11.846Z,7.01
2022-11-06T00:30:40.463Z,6.95
2022-11-06T00:33:08.603Z,6.85
2022-11-06T00:35:39.614Z,6.79
2022-11-06T00:38:07.794Z,6.76
2022-11-06T00:40:35.888Z,6.76
2022-11-06T00:43:03.827Z,6.74
2022-11-06T00:45:31.774Z,6.72
2022-11-06T00:47:59.788Z,6.70
2022-11-06T00:50:28.046Z,6.70
2022-11-06T00:52:56.441Z,6.69
2022-11-06T00:55:24.441Z,6.69
2022-11-06T00:57:52.509Z,6.68
2022-11-06T05:02:08.824Z,5.44
2022-11-06T05:04:36.854Z,5.42
2022-11-06T05:07:04.911Z,5.41
2022-11-06T05:09:32.392Z,5.39
2022-11-06T05:12:00.267Z,5.38
2022-11-06T05:14:28.397Z,5.37
2022-11-06T05:16:56.393Z,5.35
2022-11-06T05:19:25.522Z,5.33
2022-11-06T05:22:12.120Z,5.31
2022-11-06T05:24:40.535Z,5.29
2022-11-06T05:27:08.522Z,5.26
2022-11-06T05:29:36.527Z,5.24
2022-11-06T05:32:04.431Z,5.21
2022-11-06T05:34:31.796Z,5.19
2022-11-06T05:36:59.720Z,5.17
2022-11-06T05:39:27.586Z,5.16
2022-11-06T05:41:55.804Z,5.14
2022-11-06T05:44:24.287Z,5.07
2022-11-06T05:46:52.311Z,5.07
2022-11-06T05:49:20.423Z,5.07
2022-11-06T05:51:49.062Z,5.07
2022-11-06T05:54:19.152Z,5.09
2022-11-06T05:56:46.908Z,5.07
2022-11-06T05:59:14.607Z,5.06
2022-11-06T06:01:42.773Z,5.07
2022-11-06T06:04:11.169Z,5.10
2022-11-06T06:06:39.665Z,5.11
2022-11-06T06:09:07.747Z,5.10
2022-11-06T06:11:35.776Z,5.10
2022-11-06T06:14:03.902Z,5.12
2022-11-06T06:16:31.999Z,5.12
2022-11-06T06:18:59.648Z,5.14
2022-11-06T06:21:27.283Z,5.13
2022-11-06T06:23:54.495Z,5.13
2022-11-06T06:26:22.407Z,5.15
2022-11-06T06:28:50.479Z,5.22
2022-11-06T06:31:18.658Z,5.27
2022-11-06T06:33:45.915Z,5.30
2022-11-06T06:36:13.837Z,5.34
2022-11-06T06:38:41.215Z,5.37
2022-11-06T06:41:10.353Z,5.42
2022-11-06T06:43:37.680Z,5.46
2022-11-06T06:46:07.794Z,5.50
2022-11-06T06:48:36.349Z,5.58
2022-11-06T06:51:05.649Z,5.65
2022-11-06T06:53:33.275Z,5.71
2022-11-06T06:56:02.840Z,5.72
2022-11-06T06:58:32.095Z,5.70
2022-11-06T07:01:02.690Z,5.71
2022-11-06T07:03:31.206Z,5.77
2022-11-06T07:05:59.688Z,5.81
2022-11-06T07:08:29.086Z,5.84
2022-11-06T07:11:01.333Z,5.85
2022-11-06T07:13:35.456Z,5.87
2022-11-06T07:16:10.303Z,5.90
2022-11-06T07:18:39.845Z,5.94
2022-11-06T07:21:09.685Z,6.00
2022-11-06T07:23:38.434Z,6.04
2022-11-06T07:26:07.326Z,6.04
2022-11-06T07:28:35.121Z,6.01
2022-11-06T07:31:05.424Z,6.01
2022-11-06T07:33:34.312Z,6.08
2022-11-06T07:36:11.292Z,6.15
2022-11-06T07:38:41.270Z,6.23
2022-11-06T07:41:12.373Z,6.30
2022-11-06T07:43:41.011Z,6.36
2022-11-06T07:46:10.873Z,6.42
2022-11-06T07:48:40.111Z,6.45
2022-11-06T07:51:11.428Z,6.53
2022-11-06T07:53:40.038Z,6.62
2022-11-06T07:56:09.219Z,6.68
2022-11-06T07:58:36.831Z,6.77
2022-11-06T08:01:05.473Z,6.88
2022-11-06T08:03:34.692Z,6.99
2022-11-06T08:06:05.608Z,7.06
2022-11-06T08:08:33.597Z,7.14
2022-11-06T08:11:06.260Z,7.22
2022-11-06T08:13:35.968Z,7.28
2022-11-06T08:16:09.177Z,7.38
2022-11-06T08:18:37.254Z,7.48
2022-11-06T08:21:05.927Z,7.58
2022-11-06T08:23:34.300Z,7.66
2022-11-06T08:26:04.241Z,7.75
2022-11-06T08:28:31.562Z,7.85
2022-11-06T08:30:58.860Z,7.95
2022-11-06T08:33:26.224Z,8.02
2022-11-06T08:35:53.528Z,8.08
2022-11-06T08:38:20.704Z,8.14
2022-11-06T08:40:53.188Z,8.21
2022-11-06T08:43:23.722Z,8.27
2022-11-06T08:45:51.004Z,8.34
2022-11-06T08:48:18.773Z,8.39
2022-11-06T08:50:48.689Z,8.46
2022-11-06T08:53:16.277Z,8.52
2022-11-06T08:55:44.384Z,8.59
2022-11-06T08:58:11.848Z,8.67
2022-11-06T09:00:39.029Z,8.73
2022-11-06T09:03:18.222Z,8.81
2022-11-06T09:05:46.346Z,8.89
2022-11-06T09:08:15.074Z,8.95
2022-11-06T09:10:43.880Z,9.02
2022-11-06T09:13:12.232Z,9.09
2022-11-06T09:15:40.102Z,9.16
2022-11-06T09:18:08.512Z,9.22
2022-11-06T09:20:35.805Z,9.26
2022-11-06T09:23:06.442Z,9.31
2022-11-06T09:25:34.594Z,9.38
2022-11-06T09:28:02.199Z,9.48
2022-11-06T09:30:31.958Z,9.53
2022-11-06T09:33:02.162Z,9.60
2022-11-06T09:35:31.837Z,9.65
2022-11-06T09:38:07.750Z,9.72
2022-11-06T09:40:38.473Z,9.78
2022-11-06T09:43:15.761Z,9.81
2022-11-06T09:45:43.990Z,9.86
2022-11-06T09:48:11.348Z,9.90
2022-11-06T09:51:04.826Z,9.93
2022-11-06T09:53:42.031Z,9.98
2022-11-06T09:56:14.244Z,10.01
2022-11-06T09:58:45.307Z,10.06
2022-11-06T10:01:42.880Z,10.10
2022-11-06T10:04:24.727Z,10.13
2022-11-06T10:06:53.113Z,10.17
2022-11-06T10:09:20.543Z,10.22
2022-11-06T10:11:51.598Z,10.27
2022-11-06T10:14:56.324Z,10.30
2022-11-06T10:17:46.827Z,10.34
2022-11-06T10:20:26.809Z,10.40
2022-11-06T10:23:32.748Z,10.46
2022-11-06T10:26:28.660Z,10.52
2022-11-06T10:29:23.447Z,10.54
2022-11-06T10:31:54.379Z,10.58
2022-11-06T10:34:37.321Z,10.61
2022-11-06T10:37:17.135Z,10.63
2022-11-06T10:39:47.251Z,10.67
2022-11-06T10:42:20.790Z,10.70
2022-11-06T10:45:00.131Z,10.77
2022-11-06T10:47:34.516Z,10.84
2022-11-06T10:50:05.641Z,10.88
2022-11-06T10:52:43.628Z,10.93
2022-11-06T10:55:29.880Z,11.00
2022-11-06T10:58:10.939Z,11.05
2022-11-06T11:00:39.342Z,11.07
2022-11-06T11:03:37.083Z,11.08
2022-11-06T11:06:05.542Z,11.08
2022-11-06T11:08:46.895Z,11.05
2022-11-06T11:11:14.850Z,10.99
2022-11-06T11:13:49.659Z,10.98
2022-11-06T11:16:22.332Z,10.96
2022-11-06T11:18:51.818Z,10.94
2022-11-06T11:21:19.817Z,10.92
2022-11-06T11:24:12.382Z,10.93
2022-11-06T11:26:52.209Z,10.93
2022-11-06T11:29:27.388Z,10.93
2022-11-06T11:32:00.481Z,10.94
2022-11-06T11:34:32.180Z,10.90
2022-11-06T11:37:06.160Z,10.78
2022-11-06T11:39:46.203Z,10.70
2022-11-06T11:42:17.106Z,10.68
2022-11-06T11:44:45.629Z,10.75
2022-11-06T11:47:24.754Z,10.82
2022-11-06T11:49:52.246Z,10.88
2022-11-06T11:52:22.139Z,10.93
2022-11-06T11:54:54.537Z,10.98
2022-11-06T11:57:26.832Z,11.05
2022-11-06T11:59:58.108Z,11.11
2022-11-06T12:02:36.615Z,11.15
2022-11-06T12:05:13.074Z,11.17
2022-11-06T12:07:57.849Z,11.19
2022-11-06T12:10:33.054Z,11.20
2022-11-06T12:13:15.578Z,11.23
2022-11-06T12:16:09.951Z,11.26
2022-11-06T12:18:46.284Z,11.28
2022-11-06T12:21:19.539Z,11.26
2022-11-06T12:23:58.807Z,11.24
2022-11-06T12:26:45.347Z,11.23
2022-11-06T12:29:21.051Z,11.22
2022-11-06T12:31:52.905Z,11.23
2022-11-06T12:34:38.087Z,11.24
2022-11-06T12:37:15.408Z,11.22
2022-11-06T12:39:50.224Z,11.20
2022-11-06T12:42:21.561Z,11.20
2022-11-06T12:44:49.854Z,11.21
2022-11-06T12:47:34.887Z,11.22
2022-11-06T12:50:17.655Z,11.24
2022-11-06T12:53:16.066Z,11.25
2022-11-06T12:56:12.920Z,11.27
2022-11-06T12:58:58.995Z,11.30
2022-11-06T13:01:47.007Z,11.30
2022-11-06T13:04:25.990Z,11.32
2022-11-06T13:07:15.129Z,11.32
2022-11-06T13:10:29.446Z,11.31
2022-11-06T13:13:15.947Z,11.28
2022-11-06T13:15:52.591Z,11.27
2022-11-06T13:18:30.916Z,11.25
2022-11-06T13:21:07.888Z,11.23
2022-11-06T13:23:45.432Z,11.22
2022-11-06T13:26:35.750Z,11.22
2022-11-06T13:29:07.096Z,11.21
2022-11-06T13:31:45.076Z,11.22
2022-11-06T13:34:39.635Z,11.21
2022-11-06T13:37:15.668Z,11.18
2022-11-06T13:39:51.017Z,11.17
2022-11-06T13:42:28.296Z,11.15
2022-11-06T13:44:58.981Z,11.12
2022-11-06T13:47:37.141Z,11.11
2022-11-06T13:50:23.098Z,11.10
2022-11-06T13:52:58.032Z,11.06
2022-11-06T13:55:47.171Z,11.03
2022-11-06T13:58:25.917Z,11.01
2022-11-06T14:01:08.969Z,10.98
2022-11-06T14:04:05.041Z,10.95
2022-11-06T14:06:35.934Z,10.93
2022-11-06T14:09:18.320Z,10.90
2022-11-06T14:12:00.650Z,10.89
2022-11-06T14:14:31.704Z,10.86
2022-11-06T14:17:17.984Z,10.83
2022-11-06T14:19:50.204Z,10.80
2022-11-06T14:22:38.254Z,10.76
2022-11-06T14:25:27.974Z,10.72
2022-11-06T14:27:55.937Z,10.68
2022-11-06T14:30:50.442Z,10.64
2022-11-06T14:33:50.082Z,10.60
2022-11-06T14:36:34.051Z,10.54
2022-11-06T14:39:04.419Z,10.46
2022-11-06T14:41:35.589Z,10.39
2022-11-06T14:44:08.587Z,10.34
2022-11-06T14:46:37.536Z,10.28
2022-11-06T14:49:21.421Z,10.21
2022-11-06T14:52:04.315Z,10.15
2022-11-06T14:54:37.892Z,10.09
2022-11-06T14:57:06.395Z,10.06
2022-11-06T14:59:39.609Z,10.01
2022-11-06T15:02:22.896Z,9.96
2022-11-06T15:05:00.458Z,9.91
2022-11-06T15:08:03.725Z,9.84
2022-11-06T15:10:42.288Z,9.76
2022-11-06T15:13:18.627Z,9.66
2022-11-06T15:15:49.841Z,9.56
2022-11-06T15:18:23.396Z,9.49
2022-11-06T15:21:00.733Z,9.43
2022-11-06T15:24:04.039Z,9.35
2022-11-06T15:26:39.212Z,9.27
2022-11-06T15:29:29.616Z,9.22
2022-11-06T15:32:13.171Z,9.18
2022-11-06T15:34:50.578Z,9.14
2022-11-06T15:37:25.425Z,9.08
2022-11-06T15:40:00.639Z,9.03
2022-11-06T15:42:32.049Z,8.99
2022-11-06T15:45:10.582Z,8.96
2022-11-06T15:47:38.035Z,8.94
2022-11-06T15:50:17.197Z,8.91
2022-11-06T15:52:46.567Z,8.87
2022-11-06T15:55:23.305Z,8.83
2022-11-06T15:57:51.921Z,8.78
2022-11-06T16:00:24.091Z,8.72
2022-11-06T16:03:02.618Z,8.65
2022-11-06T16:05:34.624Z,8.60
2022-11-06T16:08:03.689Z,8.57
2022-11-06T16:10:33.176Z,8.52
2022-11-06T16:13:02.881Z,8.47
2022-11-06T16:15:46.532Z,8.41
2022-11-06T16:18:26.664Z,8.34
2022-11-06T16:21:23.625Z,8.29
2022-11-06T16:24:02.894Z,8.26
2022-11-06T16:26:36.030Z,8.25
2022-11-06T16:29:11.692Z,8.23
2022-11-06T16:31:39.866Z,8.22
2022-11-06T16:34:33.052Z,8.19
2022-11-06T16:37:03.945Z,8.14
2022-11-06T16:39:48.277Z,8.11
2022-11-06T16:42:23.757Z,8.10
2022-11-06T16:44:59.942Z,8.06
2022-11-06T16:47:28.237Z,8.02
2022-11-06T16:49:57.599Z,7.97
2022-11-06T16:52:34.114Z,7.92
2022-11-06T16:55:17.536Z,7.90
2022-11-06T16:57:58.679Z,7.91
2022-11-06T17:00:32.108Z,7.90
2022-11-06T17:03:09.432Z,7.92
2022-11-06T17:05:38.668Z,7.94
2022-11-06T17:08:09.760Z,7.94
2022-11-06T17:10:46.138Z,7.94
2022-11-06T17:13:23.662Z,7.95
2022-11-06T17:16:03.711Z,7.96
2022-11-06T17:18:39.841Z,7.96
2022-11-06T17:21:16.616Z,7.95
2022-11-06T17:23:46.077Z,7.93
2022-11-06T17:26:17.802Z,7.93
2022-11-06T17:28:46.036Z,7.95
2022-11-06T17:31:16.437Z,7.94
2022-11-06T17:33:44.338Z,7.94
2022-11-06T17:36:27.111Z,7.93
2022-11-06T17:38:56.002Z,7.92
2022-11-06T17:41:30.661Z,7.88
2022-11-06T17:44:07.021Z,7.83
2022-11-06T17:46:37.085Z,7.78
2022-11-06T17:49:05.012Z,7.72
2022-11-06T17:51:53.653Z,7.66
2022-11-06T17:54:23.741Z,7.60
2022-11-06T17:56:51.947Z,7.55
2022-11-06T17:59:20.024Z,7.49
2022-11-06T18:01:50.758Z,7.44
2022-11-06T18:04:19.674Z,7.40
2022-11-06T18:06:52.460Z,7.36
2022-11-06T18:09:21.649Z,7.31
2022-11-06T18:11:50.599Z,7.30
2022-11-06T18:14:18.327Z,7.29
2022-11-06T18:16:45.790Z,7.29
2022-11-06T18:19:17.915Z,7.26
2022-11-06T18:21:46.501Z,7.24
2022-11-06T18:24:14.491Z,7.22
2022-11-06T18:26:42.782Z,7.21
2022-11-06T18:29:12.172Z,7.20
2022-11-06T18:31:40.479Z,7.18
2022-11-06T18:34:14.054Z,7.15
2022-11-06T18:36:45.922Z,7.13
2022-11-06T18:39:13.480Z,7.09
2022-11-06T18:41:40.775Z,7.08
2022-11-06T18:44:08.733Z,7.08
2022-11-06T18:46:36.650Z,7.06
2022-11-06T18:49:04.062Z,7.05
2022-11-06T18:51:35.524Z,7.02
2022-11-06T18:54:07.414Z,7.01
2022-11-06T18:56:39.573Z,6.97
2022-11-06T18:59:08.674Z,6.93
2022-11-06T19:01:36.545Z,6.94
2022-11-06T19:04:05.343Z,6.93
2022-11-06T19:06:33.008Z,6.93
2022-11-06T19:09:00.509Z,6.93
2022-11-06T19:11:27.991Z,6.94
2022-11-06T19:13:55.313Z,6.98
2022-11-06T19:16:22.650Z,7.00
2022-11-06T19:21:30.833Z,6.98
2022-11-06T19:24:05.668Z,6.96
2022-11-06T19:26:36.107Z,6.90
2022-11-06T19:29:06.105Z,6.83
2022-11-06T19:31:34.433Z,6.75
2022-11-06T19:34:04.801Z,6.73
2022-11-06T19:36:32.645Z,6.74
2022-11-06T19:39:03.951Z,6.73
2022-11-06T19:41:31.843Z,6.70
2022-11-06T19:44:00.181Z,6.67
2022-11-06T19:46:33.990Z,6.67
2022-11-06T19:49:07.874Z,6.67
2022-11-06T19:51:38.060Z,6.67
2022-11-06T19:54:09.827Z,6.66
2022-11-06T19:57:28.340Z,6.69
2022-11-06T19:59:25.242Z,6.73
2022-11-06T20:01:52.641Z,6.75
2022-11-06T20:04:20.723Z,6.70
2022-11-06T20:06:48.320Z,6.69
2022-11-06T20:09:16.061Z,6.70
2022-11-06T20:11:43.787Z,6.72
2022-11-06T20:14:11.532Z,6.75
2022-11-06T20:16:41.225Z,6.77
2022-11-06T20:19:08.916Z,6.78
2022-11-06T20:21:36.335Z,6.80
2022-11-06T20:24:04.277Z,6.80
2022-11-06T20:26:31.712Z,6.81
2022-11-06T20:28:59.052Z,6.81
2022-11-06T20:31:27.523Z,6.81
2022-11-06T20:33:54.965Z,6.84
2022-11-06T20:36:25.225Z,6.84
2022-11-06T20:38:54.874Z,6.83
2022-11-06T20:41:23.456Z,6.83
2022-11-06T20:43:53.544Z,6.81
2022-11-06T20:46:22.160Z,6.79
2022-11-06T20:48:50.276Z,6.77
2022-11-06T20:51:21.699Z,6.74
2022-11-06T20:53:49.185Z,6.73
2022-11-06T20:56:18.401Z,6.69
2022-11-06T20:58:45.826Z,6.69
2022-11-06T21:01:18.428Z,6.68
2022-11-06T21:03:47.486Z,6.68
2022-11-06T21:06:16.214Z,6.66
2022-11-06T21:08:44.188Z,6.67
2022-11-06T21:11:14.546Z,6.69
2022-11-06T21:13:42.375Z,6.68
2022-11-06T21:16:17.651Z,6.66
2022-11-06T21:18:46.167Z,6.63
2022-11-06T21:21:17.147Z,6.64
2022-11-06T21:23:48.992Z,6.61
2022-11-06T21:26:23.875Z,6.59
2022-11-06T21:28:51.894Z,6.57
2022-11-06T21:31:22.960Z,6.53
2022-11-06T21:33:52.911Z,6.51
2022-11-06T21:36:23.538Z,6.50
2022-11-06T21:38:51.019Z,6.49
2022-11-06T21:41:22.799Z,6.46
2022-11-06T21:43:50.704Z,6.43
2022-11-06T21:46:20.296Z,6.44
2022-11-06T21:48:58.346Z,6.41
2022-11-06T21:51:32.213Z,6.37
2022-11-06T21:54:19.832Z,6.30
2022-11-06T21:56:49.191Z,6.28
2022-11-06T21:59:19.824Z,6.28
2022-11-06T22:01:47.272Z,6.27
2022-11-06T22:04:16.796Z,6.30
2022-11-06T22:06:45.197Z,6.33
2022-11-06T22:09:13.921Z,6.33
2022-11-06T22:11:43.879Z,6.34
2022-11-06T22:14:14.447Z,6.35
2022-11-06T22:16:44.450Z,6.34
2022-11-06T22:19:13.884Z,6.33
2022-11-06T22:21:44.733Z,6.36
2022-11-06T22:24:14.589Z,6.37
2022-11-06T22:26:42.462Z,6.35
2022-11-06T22:29:13.399Z,6.35
2022-11-06T22:31:41.160Z,6.35
2022-11-06T22:34:11.428Z,6.33
2022-11-06T22:36:39.553Z,6.33
2022-11-06T22:39:09.368Z,6.31
2022-11-06T22:41:38.076Z,6.30
2022-11-06T22:44:06.416Z,6.28
2022-11-06T22:46:35.233Z,6.28
2022-11-06T22:49:04.581Z,6.26
2022-11-06T22:51:33.825Z,6.24
2022-11-06T22:54:03.364Z,6.25
2022-11-06T22:56:31.809Z,6.24
2022-11-06T22:59:05.747Z,6.25
2022-11-06T23:01:37.370Z,6.28
2022-11-06T23:04:10.720Z,6.30
2022-11-06T23:06:38.122Z,6.29
2022-11-06T23:09:05.971Z,6.28
2022-11-06T23:11:34.418Z,6.28
2022-11-06T23:14:07.586Z,6.31
2022-11-06T23:16:56.041Z,6.33
2022-11-06T23:19:24.578Z,6.36
2022-11-06T23:22:12.845Z,6.36
2022-11-06T23:24:40.767Z,6.37
2022-11-06T23:27:10.330Z,6.39
2022-11-06T23:29:39.086Z,6.42
2022-11-06T23:32:08.453Z,6.45
2022-11-06T23:34:36.029Z,6.48
2022-11-06T23:37:04.183Z,6.50
2022-11-06T23:39:34.408Z,6.52
2022-11-06T23:42:01.786Z,6.54
2022-11-06T23:44:47.962Z,6.55
2022-11-06T23:47:15.578Z,6.55
2022-11-06T23:49:43.707Z,6.56
2022-11-06T23:52:11.239Z,6.56
2022-11-06T23:54:39.388Z,6.54
2022-11-06T23:57:09.411Z,6.52
2022-11-06T23:59:37.608Z,6.51
